Time;durP1;ratioP1;P1;durP2;ratioP2;P2;SDS_P1;SDS_P2;PMS_P1;PMS_P2;Temp;Humidity;BMP_temperature;BMP_pressure;BME280_temperature;BME280_humidity;BME280_pressure;Samples;Min_cycle;Max_cycle;Signal;HPM_P1;HPM_P2
2022/12/24 00:02:11;;;;;;;0.90;0.80;;;10.20;97.30;;;;;;4969306;28;20434;-88
2022/12/24 00:04:36;;;;;;;4.40;1.53;;;10.20;97.30;;;;;;4968801;28;20235;-89
2022/12/24 00:07:02;;;;;;;2.47;1.67;;;10.20;97.30;;;;;;4963003;28;20182;-88
2022/12/24 00:09:28;;;;;;;1.57;1.20;;;10.20;97.30;;;;;;4970923;28;20653;-88
2022/12/24 00:11:53;;;;;;;1.00;0.90;;;10.20;97.30;;;;;;4965550;28;20233;-88
2022/12/24 00:14:19;;;;;;;1.10;1.00;;;10.20;97.30;;;;;;4967938;28;20231;-88
2022/12/24 00:16:44;;;;;;;1.03;0.93;;;10.20;97.30;;;;;;4971853;28;20197;-87
2022/12/24 00:19:10;;;;;;;1.30;1.20;;;10.20;97.30;;;;;;4978067;28;20328;-87
2022/12/24 00:21:35;;;;;;;1.20;1.10;;;10.20;97.30;;;;;;4982257;28;20190;-89
2022/12/24 00:24:03;;;;;;;1.00;0.90;;;10.20;97.30;;;;;;4994369;28;20194;-89
2022/12/24 00:26:28;;;;;;;1.53;1.43;;;10.20;97.30;;;;;;4993577;28;20228;-89
2022/12/24 00:28:54;;;;;;;1.10;1.00;;;10.20;97.30;;;;;;4986286;28;20457;-86
2022/12/24 00:31:19;;;;;;;1.33;1.27;;;10.20;97.30;;;;;;4988129;28;20198;-85
2022/12/24 00:33:46;;;;;;;1.40;1.10;;;10.20;97.30;;;;;;4970787;28;20673;-87
2022/12/24 00:36:12;;;;;;;3.43;2.50;;;10.20;97.30;;;;;;4950062;28;20183;-84
2022/12/24 00:38:38;;;;;;;21.73;1.23;;;10.20;97.30;;;;;;4963343;28;20471;-84
2022/12/24 00:41:22;;;;;;;1.73;1.63;;;10.20;97.30;;;;;;4986576;28;20438;-84
2022/12/24 00:43:58;;;;;;;2.13;1.70;;;10.20;97.30;;;;;;4979351;28;20442;-85
2022/12/24 00:46:25;;;;;;;2.20;1.53;;;10.20;97.30;;;;;;4979294;28;20480;-84
2022/12/24 00:48:51;;;;;;;1.53;1.00;;;10.20;97.30;;;;;;4971952;28;20478;-85
2022/12/24 00:51:18;;;;;;;1.40;1.30;;;10.20;97.30;;;;;;4971112;28;20476;-87
2022/12/24 00:53:43;;;;;;;1.30;1.20;;;10.20;97.30;;;;;;4969359;28;20441;-84
2022/12/24 00:56:09;;;;;;;2.87;2.67;;;10.20;97.30;;;;;;4970912;28;20956;-85
2022/12/24 00:58:35;;;;;;;1.57;1.47;;;10.20;97.30;;;;;;4967318;28;20206;-85
2022/12/24 01:01:00;;;;;;;1.17;1.07;;;10.20;97.30;;;;;;4970870;28;20187;-84
2022/12/24 01:03:35;;;;;;;1.63;1.53;;;10.20;97.30;;;;;;4968437;28;20446;-85
2022/12/24 01:06:05;;;;;;;1.17;1.07;;;10.20;97.30;;;;;;4970270;28;20392;-84
2022/12/24 01:08:31;;;;;;;1.10;1.00;;;10.20;97.30;;;;;;4971534;28;20477;-87
2022/12/24 01:10:57;;;;;;;2.90;2.27;;;10.20;97.30;;;;;;4970392;28;20479;-84
2022/12/24 01:13:23;;;;;;;2.20;1.57;;;10.20;97.30;;;;;;4967616;28;20449;-85
2022/12/24 01:15:48;;;;;;;1.20;1.10;;;10.20;97.30;;;;;;4974439;28;20617;-84
2022/12/24 01:18:14;;;;;;;0.93;0.83;;;10.20;97.30;;;;;;4970456;28;20487;-85
2022/12/24 01:20:40;;;;;;;1.23;1.20;;;10.30;97.30;;;;;;4966496;28;20285;-84
2022/12/24 01:23:05;;;;;;;2.07;1.93;;;10.30;97.30;;;;;;4966254;28;20190;-86
2022/12/24 01:25:31;;;;;;;2.70;0.97;;;10.30;97.30;;;;;;4968612;28;20192;-85
2022/12/24 01:27:56;;;;;;;18.10;3.30;;;10.30;97.30;;;;;;4964750;28;20670;-84
2022/12/24 01:30:22;;;;;;;1.87;1.50;;;10.40;97.30;;;;;;4961030;28;20179;-88
2022/12/24 01:32:48;;;;;;;3.60;3.10;;;10.40;97.30;;;;;;4969891;28;20991;-84
2022/12/24 01:35:13;;;;;;;1.00;0.90;;;10.40;97.30;;;;;;4974051;28;20175;-85
2022/12/24 01:37:40;;;;;;;19.93;1.37;;;10.40;97.30;;;;;;4974020;28;20229;-87
2022/12/24 01:45:45;;;;;;;2.10;1.83;;;10.40;97.30;;;;;;5010663;28;20948;-85
2022/12/24 01:48:16;;;;;;;3.60;1.90;;;10.30;97.30;;;;;;4996635;28;21027;-86
2022/12/24 01:50:42;;;;;;;1.30;1.20;;;10.30;97.30;;;;;;4996826;28;20459;-88
2022/12/24 01:53:09;;;;;;;1.20;1.10;;;10.30;97.30;;;;;;5000088;28;20492;-88
2022/12/24 01:55:34;;;;;;;2.50;1.20;;;10.40;97.30;;;;;;4995644;28;20945;-85
2022/12/24 01:58:04;;;;;;;1.37;1.27;;;10.40;97.30;;;;;;4995130;28;20510;-86
2022/12/24 02:00:29;;;;;;;1.00;0.90;;;10.40;97.30;;;;;;5013709;28;20177;-87
2022/12/24 02:02:55;;;;;;;1.87;1.73;;;10.40;97.30;;;;;;4996718;28;20845;-86
2022/12/24 02:05:27;;;;;;;1.67;1.60;;;10.40;97.30;;;;;;4996425;28;20272;-86
2022/12/24 02:07:53;;;;;;;1.10;1.00;;;10.40;97.30;;;;;;4986985;28;20652;-86
2022/12/24 02:10:18;;;;;;;1.37;1.20;;;10.40;97.30;;;;;;5015171;28;20445;-85
2022/12/24 02:12:46;;;;;;;4.27;2.40;;;10.40;97.30;;;;;;4999525;28;20584;-86
2022/12/24 02:15:13;;;;;;;1.00;0.90;;;10.40;97.30;;;;;;4990574;28;20197;-86
2022/12/24 02:18:00;;;;;;;0.90;0.80;;;10.40;97.30;;;;;;4994889;28;20523;-86
2022/12/24 02:20:31;;;;;;;2.40;1.93;;;10.40;97.30;;;;;;4995359;28;20907;-86
2022/12/24 02:23:35;;;;;;;1.03;0.93;;;10.40;97.30;;;;;;4994351;28;20483;-88
2022/12/24 02:26:28;;;;;;;3.47;2.60;;;10.40;97.30;;;;;;4993179;28;20520;-86
2022/12/24 02:29:22;;;;;;;1.57;1.47;;;10.40;97.30;;;;;;4993910;28;20440;-86
2022/12/24 02:32:00;;;;;;;1.20;1.10;;;10.40;97.30;;;;;;4994902;28;20460;-86
2022/12/24 02:34:36;;;;;;;1.20;1.10;;;10.40;97.30;;;;;;4992839;28;20503;-87
2022/12/24 02:37:23;;;;;;;1.90;1.40;;;10.40;97.30;;;;;;5000965;28;20511;-86
2022/12/24 02:40:02;;;;;;;2.60;2.00;;;10.30;97.30;;;;;;4993620;28;21006;-87
2022/12/24 02:42:35;;;;;;;1.07;0.97;;;10.30;97.30;;;;;;5000848;28;20592;-88
2022/12/24 02:45:06;;;;;;;1.00;0.90;;;10.30;97.30;;;;;;5008173;28;20447;-87
2022/12/24 02:47:33;;;;;;;1.00;0.90;;;10.30;97.30;;;;;;5011299;28;20961;-87
2022/12/24 02:50:01;;;;;;;0.90;0.80;;;10.30;97.30;;;;;;4994484;28;20444;-86
2022/12/24 02:52:27;;;;;;;1.40;1.30;;;10.30;97.30;;;;;;4995201;28;20554;-86
2022/12/24 02:54:53;;;;;;;14.20;1.50;;;10.40;97.30;;;;;;4991913;28;20436;-86
2022/12/24 02:57:34;;;;;;;1.00;0.90;;;10.30;97.30;;;;;;4994827;28;20463;-86
2022/12/24 03:00:09;;;;;;;1.33;1.23;;;10.40;97.30;;;;;;4990120;28;20177;-86
2022/12/24 03:03:14;;;;;;;6.13;1.03;;;10.40;97.30;;;;;;4994000;28;20474;-86
2022/12/24 03:05:40;;;;;;;1.17;1.13;;;10.40;97.30;;;;;;5021102;28;20440;-87
2022/12/24 03:08:26;;;;;;;9.33;2.60;;;10.40;97.30;;;;;;4995824;28;20462;-86
2022/12/24 03:11:20;;;;;;;6.73;1.60;;;10.40;97.30;;;;;;5033207;28;20244;-86
2022/12/24 03:13:47;;;;;;;1.13;1.03;;;10.40;97.30;;;;;;4993002;28;20477;-89
2022/12/24 03:16:21;;;;;;;1.63;1.53;;;10.40;97.30;;;;;;4992905;28;20464;-85
2022/12/24 03:18:49;;;;;;;29.47;2.00;;;10.40;97.30;;;;;;4996084;28;20436;-86
2022/12/24 03:21:30;;;;;;;1.87;1.77;;;10.50;97.30;;;;;;4995142;28;20443;-87
2022/12/24 03:23:56;;;;;;;1.30;1.20;;;10.50;97.30;;;;;;4993117;28;20463;-87
2022/12/24 03:26:23;;;;;;;1.83;1.73;;;10.50;97.30;;;;;;5013575;28;20432;-85
2022/12/24 03:28:49;;;;;;;0.90;0.80;;;10.40;97.30;;;;;;4993264;28;20607;-86
2022/12/24 03:31:17;;;;;;;1.20;1.10;;;10.50;97.30;;;;;;4995103;28;20550;-86
2022/12/24 03:33:42;;;;;;;1.77;1.70;;;10.50;97.30;;;;;;4994615;28;20267;-85
2022/12/24 03:36:08;;;;;;;2.53;1.07;;;10.50;97.30;;;;;;4994757;28;20436;-86
2022/12/24 03:38:34;;;;;;;1.17;1.10;;;10.40;97.30;;;;;;5012709;28;20185;-87
2022/12/24 03:41:01;;;;;;;1.03;0.97;;;10.40;97.30;;;;;;4993724;28;20785;-87
2022/12/24 03:43:27;;;;;;;1.20;1.10;;;10.40;97.30;;;;;;4994851;28;20513;-85
2022/12/24 03:45:52;;;;;;;1.20;1.10;;;10.40;97.30;;;;;;4992549;28;20435;-85
2022/12/24 03:48:18;;;;;;;12.03;1.47;;;10.40;97.30;;;;;;4997313;28;20264;-87
2022/12/24 03:50:43;;;;;;;5.73;1.37;;;10.40;97.30;;;;;;4992525;28;20189;-86
2022/12/24 03:53:09;;;;;;;0.93;0.83;;;10.30;97.30;;;;;;4992960;28;20217;-86
2022/12/24 03:55:34;;;;;;;2.97;1.90;;;10.30;97.30;;;;;;4990998;28;20200;-84
2022/12/24 03:58:00;;;;;;;6.10;1.73;;;10.30;97.30;;;;;;4992343;28;20185;-86
2022/12/24 04:00:25;;;;;;;1.33;1.23;;;10.30;97.30;;;;;;4989603;28;20189;-85
2022/12/24 04:02:50;;;;;;;2.60;2.40;;;10.30;97.30;;;;;;4984371;28;20213;-85
2022/12/24 04:05:18;;;;;;;12.60;2.40;;;10.30;97.30;;;;;;4999487;28;20176;-87
2022/12/24 04:07:45;;;;;;;1.73;1.57;;;10.30;97.30;;;;;;4993632;28;20185;-86
2022/12/24 04:10:11;;;;;;;4.23;3.03;;;10.30;97.30;;;;;;4997023;28;20440;-86
2022/12/24 04:12:37;;;;;;;1.47;1.37;;;10.30;97.30;;;;;;4994568;28;20463;-87
2022/12/24 04:15:03;;;;;;;2.23;1.40;;;10.30;97.30;;;;;;5002710;28;20433;-87
2022/12/24 04:17:28;;;;;;;0.80;0.70;;;10.40;97.30;;;;;;4997849;28;20547;-86
2022/12/24 04:19:54;;;;;;;0.90;0.80;;;10.40;97.30;;;;;;5011865;28;20428;-84
2022/12/24 04:22:20;;;;;;;4.40;1.93;;;10.40;97.30;;;;;;4994095;28;20181;-87
2022/12/24 04:24:45;;;;;;;1.20;1.10;;;10.40;97.30;;;;;;4995391;28;20188;-85
2022/12/24 04:27:13;;;;;;;5.93;2.90;;;10.40;97.30;;;;;;4991614;28;20232;-85
2022/12/24 04:29:38;;;;;;;1.00;0.90;;;10.40;97.30;;;;;;4996713;28;20181;-88
2022/12/24 04:32:04;;;;;;;0.93;0.90;;;10.40;97.30;;;;;;4989670;28;20475;-86
2022/12/24 04:34:29;;;;;;;1.10;1.00;;;10.50;97.30;;;;;;4992580;28;20200;-85
2022/12/24 04:36:55;;;;;;;1.07;0.97;;;10.50;97.30;;;;;;4987516;28;20181;-86
2022/12/24 04:39:20;;;;;;;2.00;1.53;;;10.50;97.30;;;;;;4990330;28;20196;-86
2022/12/24 04:41:46;;;;;;;1.10;1.00;;;10.40;97.30;;;;;;4984505;28;20209;-86
2022/12/24 04:44:11;;;;;;;4.83;1.93;;;10.40;97.30;;;;;;4992511;28;20252;-86
2022/12/24 04:46:37;;;;;;;5.60;2.70;;;10.50;97.30;;;;;;4992946;28;20280;-86
2022/12/24 04:49:02;;;;;;;1.57;1.47;;;10.50;97.30;;;;;;5023356;28;20178;-85
2022/12/24 04:51:28;;;;;;;1.10;1.00;;;10.50;97.30;;;;;;4993287;28;20333;-85
2022/12/24 04:53:55;;;;;;;1.17;1.07;;;10.50;97.30;;;;;;4996053;28;20202;-86
2022/12/24 04:56:23;;;;;;;0.90;0.80;;;10.50;97.30;;;;;;4991387;28;20351;-86
2022/12/24 04:58:50;;;;;;;4.07;1.80;;;10.50;97.30;;;;;;4995145;28;20400;-84
2022/12/24 05:01:18;;;;;;;1.47;1.00;;;10.50;97.30;;;;;;4993827;28;20443;-86
2022/12/24 05:03:44;;;;;;;1.10;1.00;;;10.50;97.30;;;;;;4988469;28;20443;-85
2022/12/24 05:06:13;;;;;;;0.90;0.90;;;10.50;97.30;;;;;;4987729;28;20581;-85
2022/12/24 05:08:39;;;;;;;1.10;1.00;;;10.50;97.30;;;;;;4991305;28;20173;-85
2022/12/24 05:11:05;;;;;;;1.37;1.27;;;10.50;97.30;;;;;;4990723;28;20470;-86
2022/12/24 05:13:32;;;;;;;1.97;1.87;;;10.50;97.30;;;;;;4990795;28;20566;-85
2022/12/24 05:15:57;;;;;;;1.63;1.53;;;10.50;97.30;;;;;;4994623;28;20428;-86
2022/12/24 05:18:23;;;;;;;1.27;1.17;;;10.50;97.30;;;;;;4991497;28;20527;-85
2022/12/24 05:20:48;;;;;;;0.90;0.80;;;10.40;97.30;;;;;;4994594;28;20729;-85
2022/12/24 05:28:46;;;;;;;7.70;1.87;;;10.40;97.30;;;;;;5010010;28;20530;-85
2022/12/24 05:31:11;;;;;;;8.33;2.33;;;10.40;97.30;;;;;;5012120;28;21028;-85
2022/12/24 05:33:37;;;;;;;1.20;1.10;;;10.40;97.30;;;;;;5007577;28;20228;-86
2022/12/24 05:36:02;;;;;;;51.73;2.30;;;10.40;97.30;;;;;;5011575;28;20897;-89
2022/12/24 05:38:28;;;;;;;3.80;2.10;;;10.40;97.30;;;;;;5010590;28;20181;-83
2022/12/24 05:40:53;;;;;;;1.27;1.17;;;10.40;97.30;;;;;;4991017;28;20289;-85
2022/12/24 05:43:19;;;;;;;2.10;1.63;;;10.40;97.30;;;;;;4994056;28;20229;-89
2022/12/24 05:45:44;;;;;;;2.30;2.10;;;10.40;97.30;;;;;;4984547;28;20185;-88
2022/12/24 05:48:10;;;;;;;41.93;2.47;;;10.40;97.30;;;;;;4984261;28;20181;-85
2022/12/24 05:50:38;;;;;;;1.50;1.40;;;10.30;97.30;;;;;;4991520;28;20192;-87
2022/12/24 05:53:04;;;;;;;1.53;1.43;;;10.30;97.30;;;;;;5007791;28;20205;-87
2022/12/24 05:55:30;;;;;;;1.30;1.20;;;10.30;97.30;;;;;;4990286;28;20971;-88
2022/12/24 05:57:55;;;;;;;1.10;1.00;;;10.30;97.30;;;;;;4989187;28;20216;-85
2022/12/24 06:00:21;;;;;;;1.27;1.17;;;10.30;97.30;;;;;;5008679;28;20182;-86
2022/12/24 06:02:46;;;;;;;1.27;1.17;;;10.20;97.30;;;;;;4991946;28;20201;-87
2022/12/24 06:05:12;;;;;;;2.23;2.03;;;10.20;97.30;;;;;;4991408;28;20658;-86
2022/12/24 06:07:37;;;;;;;1.30;1.20;;;10.10;97.30;;;;;;4993833;28;20556;-86
2022/12/24 06:10:04;;;;;;;4.43;1.20;;;10.10;97.30;;;;;;5000854;28;20181;-85
2022/12/24 06:12:29;;;;;;;2.90;1.20;;;10.10;97.30;;;;;;4992530;28;20200;-87
2022/12/24 06:14:55;;;;;;;4.97;1.20;;;10.10;97.30;;;;;;4990982;28;20443;-86
2022/12/24 06:17:20;;;;;;;1.30;1.20;;;10.10;97.30;;;;;;4989556;28;20177;-88
2022/12/24 06:19:46;;;;;;;1.40;1.30;;;10.10;97.30;;;;;;4992244;28;20185;-86
2022/12/24 06:22:11;;;;;;;5.47;1.93;;;10.00;97.30;;;;;;5005690;28;20275;-88
2022/12/24 06:24:37;;;;;;;1.37;1.33;;;10.00;97.30;;;;;;5004440;28;20201;-87
2022/12/24 06:27:02;;;;;;;1.10;1.00;;;10.00;97.30;;;;;;4992568;28;20185;-86
2022/12/24 06:29:28;;;;;;;1.30;1.20;;;10.00;97.30;;;;;;4994825;28;20177;-86
2022/12/24 06:31:53;;;;;;;1.20;1.10;;;10.00;97.30;;;;;;4992550;28;20344;-88
2022/12/24 06:34:19;;;;;;;2.83;1.10;;;10.00;97.30;;;;;;4989435;28;20233;-86
2022/12/24 06:36:44;;;;;;;1.37;1.27;;;9.90;97.30;;;;;;4990372;28;20177;-89
2022/12/24 06:39:10;;;;;;;1.23;1.17;;;9.90;97.30;;;;;;4994690;28;20647;-85
2022/12/24 06:41:35;;;;;;;1.40;1.37;;;9.90;97.30;;;;;;4993628;28;20275;-86
2022/12/24 06:44:01;;;;;;;1.00;0.90;;;9.90;97.30;;;;;;5012701;28;20602;-88
2022/12/24 06:46:26;;;;;;;1.10;1.00;;;9.90;97.30;;;;;;5014487;28;20504;-86
2022/12/24 06:48:53;;;;;;;1.00;0.90;;;9.90;97.30;;;;;;5009952;28;20224;-87
2022/12/24 06:51:19;;;;;;;1.17;1.07;;;9.90;97.30;;;;;;4995000;28;20362;-88
2022/12/24 06:53:45;;;;;;;1.17;1.13;;;9.90;97.30;;;;;;4995608;28;20989;-86
2022/12/24 06:56:13;;;;;;;1.17;1.07;;;9.80;97.30;;;;;;4993384;28;20473;-85
2022/12/24 06:58:39;;;;;;;1.10;1.00;;;9.80;97.30;;;;;;4990881;28;20433;-87
2022/12/24 07:01:07;;;;;;;1.20;1.10;;;9.80;97.30;;;;;;4996462;28;20416;-86
2022/12/24 07:03:33;;;;;;;1.00;0.90;;;9.80;97.30;;;;;;4993340;28;20484;-87
2022/12/24 07:05:59;;;;;;;1.07;0.97;;;9.80;97.30;;;;;;4991937;28;20435;-86
2022/12/24 07:08:25;;;;;;;1.10;1.00;;;9.80;97.30;;;;;;4993556;28;20451;-87
2022/12/24 07:10:51;;;;;;;5.20;1.63;;;9.80;97.30;;;;;;4994520;28;20624;-87
2022/12/24 07:13:17;;;;;;;0.97;0.87;;;9.80;97.30;;;;;;4994150;28;20503;-90
2022/12/24 07:15:43;;;;;;;1.50;1.40;;;9.70;97.30;;;;;;5003487;28;20456;-86
2022/12/24 07:18:09;;;;;;;1.20;1.10;;;9.70;97.30;;;;;;5001257;28;21147;-86
2022/12/24 07:20:35;;;;;;;1.00;0.90;;;9.70;97.30;;;;;;4996540;28;20550;-86
2022/12/24 07:23:00;;;;;;;1.50;1.40;;;9.70;97.30;;;;;;4997382;28;20237;-84
2022/12/24 07:25:26;;;;;;;1.40;1.30;;;9.70;97.30;;;;;;4999658;28;20197;-90
2022/12/24 07:27:51;;;;;;;1.10;1.00;;;9.70;97.30;;;;;;4996186;28;20185;-87
2022/12/24 07:30:17;;;;;;;1.77;1.40;;;9.70;97.30;;;;;;4997383;28;20192;-86
2022/12/24 07:32:42;;;;;;;4.50;1.93;;;9.60;97.30;;;;;;4993850;28;20213;-86
2022/12/24 07:35:08;;;;;;;2.33;1.53;;;9.60;97.30;;;;;;4990541;28;20553;-88
2022/12/24 07:37:34;;;;;;;1.07;1.00;;;9.50;97.30;;;;;;4996398;28;20185;-87
2022/12/24 07:40:00;;;;;;;19.43;2.97;;;9.50;97.30;;;;;;4992537;28;20527;-86
2022/12/24 07:42:26;;;;;;;2.23;1.43;;;9.50;97.30;;;;;;5004893;28;20181;-85
2022/12/24 07:44:51;;;;;;;2.20;1.47;;;9.40;97.30;;;;;;4995543;28;20531;-87
2022/12/24 07:47:17;;;;;;;3.10;2.17;;;9.40;97.30;;;;;;4994339;28;20690;-86
2022/12/24 07:49:42;;;;;;;2.03;1.57;;;9.40;97.30;;;;;;4990926;28;20725;-86
2022/12/24 07:52:08;;;;;;;1.07;0.97;;;9.30;97.30;;;;;;4993858;28;20213;-87
2022/12/24 07:54:33;;;;;;;2.10;2.00;;;9.30;97.30;;;;;;4988274;28;20201;-88
2022/12/24 07:56:59;;;;;;;6.00;1.90;;;9.30;97.30;;;;;;4993073;28;20169;-88
2022/12/24 07:59:24;;;;;;;3.27;1.87;;;9.30;97.30;;;;;;4997135;28;20180;-88
2022/12/24 08:01:50;;;;;;;1.10;1.00;;;9.30;97.30;;;;;;4992840;28;20181;-87
2022/12/24 08:04:15;;;;;;;1.20;1.10;;;9.30;97.30;;;;;;4993942;28;20204;-90
2022/12/24 08:06:40;;;;;;;1.10;1.00;;;9.30;97.30;;;;;;4993658;28;20181;-86
2022/12/24 08:09:06;;;;;;;6.83;1.43;;;9.30;97.30;;;;;;4999057;28;20176;-85
2022/12/24 08:11:32;;;;;;;2.87;1.40;;;9.30;97.30;;;;;;5005005;28;20201;-87
2022/12/24 08:13:57;;;;;;;1.00;0.90;;;9.30;97.30;;;;;;4995276;28;20193;-86
2022/12/24 08:16:23;;;;;;;2.40;1.50;;;9.30;97.30;;;;;;4995995;28;20182;-87
2022/12/24 08:18:48;;;;;;;9.70;2.40;;;9.30;97.30;;;;;;4993897;28;20331;-87
2022/12/24 08:21:14;;;;;;;1.80;1.10;;;9.30;97.30;;;;;;5011272;28;20189;-86
2022/12/24 08:23:39;;;;;;;1.00;0.90;;;9.40;97.30;;;;;;4997357;28;20291;-85
2022/12/24 08:26:09;;;;;;;2.00;1.60;;;9.40;97.30;;;;;;4992105;28;20189;-85
2022/12/24 08:28:35;;;;;;;1.40;1.30;;;9.40;97.30;;;;;;4994366;28;20253;-86
2022/12/24 08:31:01;;;;;;;1.10;1.00;;;9.40;97.30;;;;;;4995115;28;20444;-87
2022/12/24 08:33:27;;;;;;;1.30;1.20;;;9.40;97.30;;;;;;4999432;28;20463;-86
2022/12/24 08:35:54;;;;;;;0.90;0.80;;;9.40;97.30;;;;;;5002297;28;20496;-86
2022/12/24 08:38:20;;;;;;;12.93;1.13;;;9.40;97.30;;;;;;5001716;28;20889;-89
2022/12/24 08:40:48;;;;;;;1.30;1.20;;;9.40;97.30;;;;;;4999366;28;20460;-87
2022/12/24 08:43:17;;;;;;;1.67;1.63;;;9.40;97.30;;;;;;5014460;23;20995;-87
2022/12/24 08:45:44;;;;;;;2.77;1.20;;;9.40;97.30;;;;;;4989623;28;20436;-87
2022/12/24 08:48:09;;;;;;;1.23;1.13;;;9.40;97.30;;;;;;4990084;28;20556;-86
2022/12/24 08:50:40;;;;;;;1.23;1.13;;;9.50;97.30;;;;;;4992078;28;20511;-88
2022/12/24 08:53:13;;;;;;;1.17;1.07;;;9.50;97.30;;;;;;4993497;28;20589;-87
2022/12/24 08:55:41;;;;;;;2.60;1.70;;;9.60;97.30;;;;;;4972140;28;20781;-85
2022/12/24 09:01:41;;;;;;;0.80;0.70;;;9.60;97.30;;;;;;4965165;28;20442;-88
2022/12/24 09:04:22;;;;;;;1.00;0.90;;;9.70;97.30;;;;;;4960480;28;20457;-87
2022/12/24 09:06:50;;;;;;;1.03;0.93;;;9.70;97.30;;;;;;4953969;28;20825;-85
2022/12/24 09:10:21;;;;;;;1.40;1.30;;;9.80;97.30;;;;;;4965916;28;20469;-87
2022/12/24 09:13:10;;;;;;;1.17;1.07;;;9.80;97.30;;;;;;4931571;28;20470;-87
2022/12/24 09:16:11;;;;;;;1.00;0.90;;;9.90;97.30;;;;;;4958000;28;20414;-87
2022/12/24 09:20:22;;;;;;;;;;;;;;;;;;;;;
2022/12/24 09:22:22;;;;;;;1.77;1.20;;;10.00;97.30;;;;;;4974027;23;20498;-87
2022/12/24 09:25:02;;;;;;;2.10;1.10;;;10.10;97.30;;;;;;5016074;28;20523;-88
2022/12/24 09:27:31;;;;;;;1.67;1.57;;;10.10;97.30;;;;;;4992245;28;20440;-87
2022/12/24 09:33:10;;;;;;;7.63;3.50;;;10.30;97.30;;;;;;4991135;28;20483;-88
2022/12/24 09:35:52;;;;;;;3.43;2.50;;;10.40;97.30;;;;;;4973914;28;20437;-87
2022/12/24 09:38:18;;;;;;;1.00;0.90;;;10.40;97.30;;;;;;4973220;28;20525;-87
2022/12/24 09:40:44;;;;;;;2.57;2.13;;;10.40;97.30;;;;;;4974528;28;20831;-87
2022/12/24 09:43:20;;;;;;;5.90;2.63;;;10.30;97.30;;;;;;4971383;28;20465;-87
2022/12/24 09:46:03;;;;;;;4.03;2.50;;;10.20;97.30;;;;;;4974193;28;20235;-88
2022/12/24 09:48:32;;;;;;;1.10;1.00;;;10.20;97.30;;;;;;4991578;28;20429;-87
2022/12/24 09:51:14;;;;;;;1.30;1.20;;;10.10;97.30;;;;;;5001473;28;20440;-89
2022/12/24 09:54:22;;;;;;;8.33;1.80;;;10.10;97.30;;;;;;4973531;28;20548;-87
2022/12/24 09:56:48;;;;;;;2.20;2.00;;;10.00;97.30;;;;;;4987160;28;20441;-87
2022/12/24 09:59:17;;;;;;;1.93;1.83;;;10.00;97.30;;;;;;4978550;28;20475;-88
2022/12/24 10:01:42;;;;;;;1.20;1.10;;;10.00;97.30;;;;;;4973363;28;20445;-87
2022/12/24 10:04:20;;;;;;;0.90;0.80;;;10.00;97.30;;;;;;4973908;28;20443;-87
2022/12/24 10:07:10;;;;;;;1.00;0.90;;;10.00;97.30;;;;;;4987877;28;20181;-87
2022/12/24 10:09:54;;;;;;;1.17;1.10;;;10.00;97.30;;;;;;4980801;28;20437;-87
2022/12/24 10:12:38;;;;;;;2.30;1.57;;;10.00;97.30;;;;;;4999816;28;20478;-86
2022/12/24 10:15:07;;;;;;;0.90;0.80;;;10.10;97.30;;;;;;4996873;28;20420;-86
2022/12/24 10:17:59;;;;;;;1.30;1.20;;;10.10;97.30;;;;;;4979882;28;20427;-89
2022/12/24 10:20:57;;;;;;;1.27;1.00;;;10.20;97.30;;;;;;4977752;28;20428;-86
2022/12/24 10:23:36;;;;;;;1.70;1.53;;;10.30;97.30;;;;;;4961366;28;20520;-86
2022/12/24 10:26:07;;;;;;;1.50;1.40;;;10.40;97.30;;;;;;4974306;28;20443;-85
2022/12/24 10:29:01;;;;;;;2.50;1.00;;;10.60;97.30;;;;;;4978607;28;20445;-87
2022/12/24 10:31:30;;;;;;;1.40;1.30;;;10.70;97.30;;;;;;4977258;28;20503;-88
2022/12/24 10:34:12;;;;;;;1.73;1.63;;;10.80;97.30;;;;;;4976185;28;20833;-88
2022/12/24 10:36:37;;;;;;;3.80;1.53;;;10.80;97.30;;;;;;4980056;28;20417;-86
2022/12/24 10:39:03;;;;;;;3.93;1.70;;;10.80;97.30;;;;;;4971639;28;20433;-86
2022/12/24 10:41:30;;;;;;;1.70;1.60;;;10.80;97.30;;;;;;4978119;28;20178;-86
2022/12/24 10:43:59;;;;;;;1.83;1.73;;;10.80;97.30;;;;;;4974627;28;20201;-85
2022/12/24 10:46:51;;;;;;;1.20;1.10;;;10.80;97.30;;;;;;4971351;28;20461;-88
2022/12/24 10:49:46;;;;;;;3.33;0.90;;;10.90;97.30;;;;;;4966486;28;20678;-85
2022/12/24 10:52:15;;;;;;;1.73;1.30;;;10.90;97.30;;;;;;4990009;28;20865;-89
2022/12/24 10:55:18;;;;;;;3.90;1.63;;;10.90;97.30;;;;;;4993132;28;20436;-90
2022/12/24 10:57:59;;;;;;;4.87;2.50;;;10.90;97.30;;;;;;4991549;28;20459;-89
2022/12/24 11:00:25;;;;;;;1.57;1.47;;;10.90;97.30;;;;;;4973162;28;20443;-89
2022/12/24 11:03:11;;;;;;;2.80;0.90;;;10.80;97.30;;;;;;4976917;28;20713;-89
2022/12/24 11:05:37;;;;;;;2.30;2.07;;;10.80;97.30;;;;;;4991814;28;20185;-89
2022/12/24 11:08:13;;;;;;;1.50;1.40;;;10.80;97.30;;;;;;4994867;28;20435;-89
2022/12/24 11:10:53;;;;;;;1.50;1.40;;;10.80;97.30;;;;;;4991960;28;20448;-89
2022/12/24 11:13:38;;;;;;;1.27;1.17;;;10.80;97.30;;;;;;4990075;28;20468;-90
2022/12/24 11:16:16;;;;;;;1.27;1.20;;;10.70;97.30;;;;;;4974751;28;20445;-89
2022/12/24 11:18:49;;;;;;;3.17;2.80;;;10.70;97.30;;;;;;4971669;28;20967;-89
2022/12/24 11:21:30;;;;;;;1.07;0.97;;;10.70;97.30;;;;;;4996396;28;20460;-89
2022/12/24 11:23:58;;;;;;;1.77;1.67;;;10.70;97.30;;;;;;4982300;28;20504;-89
2022/12/24 11:26:27;;;;;;;5.47;1.73;;;10.80;97.30;;;;;;4978399;28;20503;-90
2022/12/24 11:29:13;;;;;;;2.73;1.47;;;10.80;97.30;;;;;;4972378;28;20960;-89
2022/12/24 11:31:40;;;;;;;1.00;0.90;;;10.90;97.30;;;;;;4973424;28;20477;-87
2022/12/24 11:34:27;;;;;;;8.93;3.53;;;10.90;97.30;;;;;;4992650;28;20442;-87
2022/12/24 11:37:05;;;;;;;4.00;3.07;;;10.90;97.30;;;;;;4993665;28;20425;-88
2022/12/24 11:39:39;;;;;;;3.73;2.30;;;10.90;97.30;;;;;;4976568;28;20491;-88
2022/12/24 11:42:05;;;;;;;2.20;0.90;;;10.90;97.30;;;;;;4977548;28;20909;-85
2022/12/24 11:44:30;;;;;;;2.30;1.73;;;10.90;97.30;;;;;;4977065;28;20460;-88
2022/12/24 11:46:56;;;;;;;1.03;0.93;;;10.90;97.30;;;;;;4975818;28;20209;-88
2022/12/24 11:49:30;;;;;;;4.00;1.30;;;10.90;97.30;;;;;;4981081;28;20190;-87
2022/12/24 11:52:11;;;;;;;0.90;0.80;;;11.00;97.30;;;;;;4975916;28;20205;-87
2022/12/24 11:55:01;;;;;;;1.20;1.20;;;11.00;97.30;;;;;;4976840;28;20958;-88
2022/12/24 11:57:38;;;;;;;5.53;1.23;;;11.00;97.30;;;;;;4985951;28;20417;-87
2022/12/24 12:00:04;;;;;;;1.30;1.20;;;11.00;97.30;;;;;;4976102;28;20433;-87
2022/12/24 12:02:37;;;;;;;1.30;1.20;;;11.00;97.30;;;;;;4975717;28;20444;-86
2022/12/24 12:05:17;;;;;;;1.17;1.07;;;11.00;97.30;;;;;;4976837;28;20425;-87
2022/12/24 12:07:46;;;;;;;0.93;0.83;;;11.00;97.30;;;;;;4976443;28;20436;-87
2022/12/24 12:10:19;;;;;;;0.90;0.80;;;11.00;97.30;;;;;;4975655;28;20489;-87
2022/12/24 12:13:01;;;;;;;1.53;1.43;;;11.00;97.30;;;;;;4976356;28;20475;-87
2022/12/24 12:15:33;;;;;;;3.37;1.53;;;11.10;97.30;;;;;;4992617;28;20795;-87
2022/12/24 12:18:09;;;;;;;1.27;1.17;;;11.10;97.30;;;;;;4976221;28;20515;-87
2022/12/24 12:20:40;;;;;;;2.27;2.07;;;11.10;97.30;;;;;;4990267;28;20527;-89
2022/12/24 12:23:50;;;;;;;4.40;1.93;;;11.10;97.30;;;;;;4981016;28;20558;-87
2022/12/24 12:26:26;;;;;;;1.47;1.27;;;11.10;97.30;;;;;;4939213;28;20485;-88
2022/12/24 12:29:24;;;;;;;1.20;1.10;;;11.10;97.30;;;;;;4976501;28;20456;-86
2022/12/24 12:31:55;;;;;;;1.40;1.30;;;11.20;97.30;;;;;;4975330;28;20824;-86
2022/12/24 12:34:38;;;;;;;6.83;1.40;;;11.20;97.30;;;;;;4968561;28;20462;-88
2022/12/24 12:37:29;;;;;;;2.23;1.83;;;11.20;97.30;;;;;;4983179;28;20444;-88
2022/12/24 12:39:55;;;;;;;1.10;1.00;;;11.20;97.30;;;;;;4972293;28;20805;-87
2022/12/24 12:42:31;;;;;;;1.00;0.90;;;11.20;97.30;;;;;;4976372;28;20455;-87
2022/12/24 12:45:43;;;;;;;1.60;1.40;;;11.20;97.30;;;;;;4982022;28;20241;-87
2022/12/24 12:48:17;;;;;;;1.97;1.63;;;11.20;97.30;;;;;;4972922;28;20445;-89
2022/12/24 12:50:57;;;;;;;3.23;1.67;;;11.20;97.30;;;;;;4987880;28;20525;-90
2022/12/24 12:53:48;;;;;;;3.13;2.17;;;11.20;97.30;;;;;;4972212;28;21144;-90
2022/12/24 12:56:32;;;;;;;1.27;1.17;;;11.30;97.30;;;;;;4989088;28;21152;-89
2022/12/24 12:59:14;;;;;;;1.10;1.00;;;11.30;97.30;;;;;;4985092;28;20540;-89
2022/12/24 13:02:11;;;;;;;3.70;1.47;;;11.30;97.30;;;;;;4981760;28;20562;-89
2022/12/24 13:05:14;;;;;;;18.33;1.77;;;11.30;97.30;;;;;;4978598;28;20459;-89
2022/12/24 13:08:05;;;;;;;1.30;1.20;;;11.30;97.30;;;;;;4991157;28;20466;-89
2022/12/24 13:11:01;;;;;;;2.33;2.07;;;11.40;97.30;;;;;;4974936;28;20834;-89
2022/12/24 13:13:39;;;;;;;1.40;1.37;;;11.40;97.30;;;;;;4977658;28;20469;-89
2022/12/24 13:16:08;;;;;;;0.90;0.80;;;11.40;97.30;;;;;;4977686;28;20441;-89
2022/12/24 13:19:05;;;;;;;1.00;0.90;;;11.30;97.30;;;;;;4990347;28;20947;-89
2022/12/24 13:21:31;;;;;;;1.00;0.90;;;11.40;97.30;;;;;;4990587;28;20806;-88
2022/12/24 13:24:06;;;;;;;1.50;1.43;;;11.40;97.30;;;;;;4986881;28;20508;-88
2022/12/24 13:26:31;;;;;;;3.27;2.57;;;11.30;97.30;;;;;;4975247;28;20440;-89
2022/12/24 13:29:35;;;;;;;1.13;1.03;;;11.30;97.30;;;;;;4976550;28;20449;-90
2022/12/24 13:32:24;;;;;;;5.23;2.20;;;11.20;97.30;;;;;;4981472;28;20197;-89